sensor_id;sensor_type;location;lat;lon;timestamp;P1;durP1;ratioP1;P2;durP2;ratioP2
7515;SDS011;3799;47.184;8.538;2023-12-20T00:02:07;7.40;;;3.40;;
7515;SDS011;3799;47.184;8.538;2023-12-20T00:04:35;5.45;;;2.97;;
7515;SDS011;3799;47.184;8.538;2023-12-20T00:07:02;5.50;;;2.95;;
7515;SDS011;3799;47.184;8.538;2023-12-20T00:09:30;5.65;;;2.90;;
7515;SDS011;3799;47.184;8.538;2023-12-20T00:11:58;6.07;;;3.30;;
7515;SDS011;3799;47.184;8.538;2023-12-20T00:14:25;6.07;;;3.17;;
7515;SDS011;3799;47.184;8.538;2023-12-20T00:16:52;5.60;;;2.45;;
7515;SDS011;3799;47.184;8.538;2023-12-20T00:19:19;5.40;;;3.20;;
7515;SDS011;3799;47.184;8.538;2023-12-20T00:21:47;7.95;;;2.95;;
7515;SDS011;3799;47.184;8.538;2023-12-20T00:24:14;5.07;;;3.10;;
7515;SDS011;3799;47.184;8.538;2023-12-20T00:26:41;6.15;;;2.75;;
7515;SDS011;3799;47.184;8.538;2023-12-20T00:29:09;5.10;;;2.95;;
7515;SDS011;3799;47.184;8.538;2023-12-20T00:31:37;5.32;;;3.13;;
7515;SDS011;3799;47.184;8.538;2023-12-20T00:34:04;6.18;;;3.15;;
7515;SDS011;3799;47.184;8.538;2023-12-20T00:36:31;5.68;;;2.70;;
7515;SDS011;3799;47.184;8.538;2023-12-20T00:38:59;4.88;;;3.03;;
7515;SDS011;3799;47.184;8.538;2023-12-20T00:41:26;7.43;;;3.20;;
7515;SDS011;3799;47.184;8.538;2023-12-20T00:43:55;6.45;;;3.05;;
7515;SDS011;3799;47.184;8.538;2023-12-20T00:46:22;6.97;;;3.45;;
7515;SDS011;3799;47.184;8.538;2023-12-20T00:48:50;5.82;;;2.88;;
7515;SDS011;3799;47.184;8.538;2023-12-20T00:51:18;6.60;;;2.90;;
7515;SDS011;3799;47.184;8.538;2023-12-20T00:53:45;5.53;;;2.72;;
7515;SDS011;3799;47.184;8.538;2023-12-20T00:56:16;8.55;;;3.50;;
7515;SDS011;3799;47.184;8.538;2023-12-20T00:58:43;9.43;;;4.03;;
7515;SDS011;3799;47.184;8.538;2023-12-20T01:01:10;6.63;;;3.33;;
7515;SDS011;3799;47.184;8.538;2023-12-20T01:03:38;7.35;;;3.13;;
7515;SDS011;3799;47.184;8.538;2023-12-20T01:06:08;5.65;;;3.25;;
7515;SDS011;3799;47.184;8.538;2023-12-20T01:08:35;10.85;;;4.03;;
7515;SDS011;3799;47.184;8.538;2023-12-20T01:11:04;10.38;;;3.75;;
7515;SDS011;3799;47.184;8.538;2023-12-20T01:13:32;9.13;;;4.03;;
7515;SDS011;3799;47.184;8.538;2023-12-20T01:15:59;9.48;;;4.00;;
7515;SDS011;3799;47.184;8.538;2023-12-20T01:18:27;7.75;;;3.35;;
7515;SDS011;3799;47.184;8.538;2023-12-20T01:20:54;7.55;;;3.53;;
7515;SDS011;3799;47.184;8.538;2023-12-20T01:23:22;7.30;;;3.85;;
7515;SDS011;3799;47.184;8.538;2023-12-20T01:25:49;5.97;;;3.42;;
7515;SDS011;3799;47.184;8.538;2023-12-20T01:28:16;6.30;;;3.85;;
7515;SDS011;3799;47.184;8.538;2023-12-20T01:30:44;6.03;;;3.03;;
7515;SDS011;3799;47.184;8.538;2023-12-20T01:33:11;9.10;;;3.10;;
7515;SDS011;3799;47.184;8.538;2023-12-20T01:35:38;7.53;;;3.15;;
7515;SDS011;3799;47.184;8.538;2023-12-20T01:38:06;6.13;;;3.05;;
7515;SDS011;3799;47.184;8.538;2023-12-20T01:40:33;4.80;;;3.17;;
7515;SDS011;3799;47.184;8.538;2023-12-20T01:43:01;9.15;;;4.05;;
7515;SDS011;3799;47.184;8.538;2023-12-20T01:45:31;5.60;;;3.38;;
7515;SDS011;3799;47.184;8.538;2023-12-20T01:47:59;8.48;;;4.35;;
7515;SDS011;3799;47.184;8.538;2023-12-20T01:50:28;7.30;;;3.30;;
7515;SDS011;3799;47.184;8.538;2023-12-20T01:52:57;6.75;;;3.70;;
7515;SDS011;3799;47.184;8.538;2023-12-20T01:55:27;6.13;;;3.58;;
7515;SDS011;3799;47.184;8.538;2023-12-20T01:57:58;5.32;;;2.55;;
7515;SDS011;3799;47.184;8.538;2023-12-20T02:00:26;6.22;;;3.13;;
7515;SDS011;3799;47.184;8.538;2023-12-20T02:02:55;8.52;;;3.15;;
7515;SDS011;3799;47.184;8.538;2023-12-20T02:05:23;6.88;;;3.35;;
7515;SDS011;3799;47.184;8.538;2023-12-20T02:07:52;8.13;;;3.25;;
7515;SDS011;3799;47.184;8.538;2023-12-20T02:10:19;6.45;;;3.03;;
7515;SDS011;3799;47.184;8.538;2023-12-20T02:12:47;4.53;;;2.53;;
7515;SDS011;3799;47.184;8.538;2023-12-20T02:15:15;5.70;;;2.40;;
7515;SDS011;3799;47.184;8.538;2023-12-20T02:17:42;6.20;;;2.80;;
7515;SDS011;3799;47.184;8.538;2023-12-20T02:20:11;5.07;;;2.40;;
7515;SDS011;3799;47.184;8.538;2023-12-20T02:22:39;4.05;;;1.85;;
7515;SDS011;3799;47.184;8.538;2023-12-20T02:25:06;6.38;;;2.08;;
7515;SDS011;3799;47.184;8.538;2023-12-20T02:27:34;5.55;;;2.75;;
7515;SDS011;3799;47.184;8.538;2023-12-20T02:30:02;4.93;;;2.20;;
7515;SDS011;3799;47.184;8.538;2023-12-20T02:32:29;6.13;;;2.03;;
7515;SDS011;3799;47.184;8.538;2023-12-20T02:34:57;4.78;;;1.83;;
7515;SDS011;3799;47.184;8.538;2023-12-20T02:37:24;7.72;;;2.53;;
7515;SDS011;3799;47.184;8.538;2023-12-20T02:39:52;4.60;;;2.03;;
7515;SDS011;3799;47.184;8.538;2023-12-20T02:42:19;4.20;;;2.20;;
7515;SDS011;3799;47.184;8.538;2023-12-20T02:44:46;4.18;;;1.58;;
7515;SDS011;3799;47.184;8.538;2023-12-20T02:47:14;4.30;;;1.80;;
7515;SDS011;3799;47.184;8.538;2023-12-20T02:49:41;4.90;;;2.53;;
7515;SDS011;3799;47.184;8.538;2023-12-20T02:52:08;4.63;;;1.83;;
7515;SDS011;3799;47.184;8.538;2023-12-20T02:54:36;5.50;;;2.05;;
7515;SDS011;3799;47.184;8.538;2023-12-20T02:57:03;4.53;;;2.25;;
7515;SDS011;3799;47.184;8.538;2023-12-20T02:59:30;5.60;;;3.10;;
7515;SDS011;3799;47.184;8.538;2023-12-20T03:01:57;4.57;;;2.30;;
7515;SDS011;3799;47.184;8.538;2023-12-20T03:04:25;7.00;;;2.83;;
7515;SDS011;3799;47.184;8.538;2023-12-20T03:06:52;6.85;;;3.25;;
7515;SDS011;3799;47.184;8.538;2023-12-20T03:09:19;5.88;;;3.38;;
7515;SDS011;3799;47.184;8.538;2023-12-20T03:11:47;5.43;;;2.42;;
7515;SDS011;3799;47.184;8.538;2023-12-20T03:14:14;5.03;;;2.33;;
7515;SDS011;3799;47.184;8.538;2023-12-20T03:16:41;6.13;;;2.67;;
7515;SDS011;3799;47.184;8.538;2023-12-20T03:19:13;6.95;;;3.17;;
7515;SDS011;3799;47.184;8.538;2023-12-20T03:21:40;4.72;;;2.33;;
7515;SDS011;3799;47.184;8.538;2023-12-20T03:24:07;6.00;;;3.50;;
7515;SDS011;3799;47.184;8.538;2023-12-20T03:26:34;4.15;;;1.90;;
7515;SDS011;3799;47.184;8.538;2023-12-20T03:29:01;6.90;;;2.38;;
7515;SDS011;3799;47.184;8.538;2023-12-20T03:31:29;7.07;;;2.70;;
7515;SDS011;3799;47.184;8.538;2023-12-20T03:33:56;5.03;;;2.75;;
7515;SDS011;3799;47.184;8.538;2023-12-20T03:36:24;7.05;;;2.63;;
7515;SDS011;3799;47.184;8.538;2023-12-20T03:38:51;5.05;;;2.65;;
7515;SDS011;3799;47.184;8.538;2023-12-20T03:41:18;7.75;;;3.17;;
7515;SDS011;3799;47.184;8.538;2023-12-20T03:43:45;5.28;;;2.80;;
7515;SDS011;3799;47.184;8.538;2023-12-20T03:46:13;5.53;;;2.22;;
7515;SDS011;3799;47.184;8.538;2023-12-20T03:48:40;4.63;;;2.13;;
7515;SDS011;3799;47.184;8.538;2023-12-20T03:51:07;5.72;;;2.47;;
7515;SDS011;3799;47.184;8.538;2023-12-20T03:53:34;4.70;;;2.17;;
7515;SDS011;3799;47.184;8.538;2023-12-20T03:56:02;4.30;;;2.22;;
7515;SDS011;3799;47.184;8.538;2023-12-20T03:58:29;5.25;;;2.15;;
7515;SDS011;3799;47.184;8.538;2023-12-20T04:00:56;4.45;;;2.20;;
7515;SDS011;3799;47.184;8.538;2023-12-20T04:03:23;4.03;;;2.05;;
7515;SDS011;3799;47.184;8.538;2023-12-20T04:05:50;3.80;;;1.92;;
7515;SDS011;3799;47.184;8.538;2023-12-20T04:08:18;4.13;;;2.08;;
7515;SDS011;3799;47.184;8.538;2023-12-20T04:10:45;4.72;;;2.03;;
7515;SDS011;3799;47.184;8.538;2023-12-20T04:13:12;4.25;;;1.90;;
7515;SDS011;3799;47.184;8.538;2023-12-20T04:15:39;4.72;;;1.98;;
7515;SDS011;3799;47.184;8.538;2023-12-20T04:18:07;6.15;;;2.50;;
7515;SDS011;3799;47.184;8.538;2023-12-20T04:20:34;3.92;;;1.73;;
7515;SDS011;3799;47.184;8.538;2023-12-20T04:23:01;3.78;;;1.98;;
7515;SDS011;3799;47.184;8.538;2023-12-20T04:25:29;4.95;;;2.13;;
7515;SDS011;3799;47.184;8.538;2023-12-20T04:27:56;4.55;;;2.28;;
7515;SDS011;3799;47.184;8.538;2023-12-20T04:30:23;4.43;;;1.70;;
7515;SDS011;3799;47.184;8.538;2023-12-20T04:32:50;5.05;;;2.08;;
7515;SDS011;3799;47.184;8.538;2023-12-20T04:35:18;4.07;;;1.80;;
7515;SDS011;3799;47.184;8.538;2023-12-20T04:37:45;6.88;;;2.55;;
7515;SDS011;3799;47.184;8.538;2023-12-20T04:40:12;4.95;;;2.55;;
7515;SDS011;3799;47.184;8.538;2023-12-20T04:42:40;6.68;;;2.13;;
7515;SDS011;3799;47.184;8.538;2023-12-20T04:45:07;4.88;;;2.03;;
7515;SDS011;3799;47.184;8.538;2023-12-20T04:47:34;6.30;;;2.88;;
7515;SDS011;3799;47.184;8.538;2023-12-20T04:50:02;3.70;;;1.92;;
7515;SDS011;3799;47.184;8.538;2023-12-20T04:52:31;3.90;;;1.75;;
7515;SDS011;3799;47.184;8.538;2023-12-20T04:54:58;6.45;;;2.13;;
7515;SDS011;3799;47.184;8.538;2023-12-20T04:57:26;5.32;;;2.03;;
7515;SDS011;3799;47.184;8.538;2023-12-20T04:59:53;4.70;;;1.83;;
7515;SDS011;3799;47.184;8.538;2023-12-20T05:02:20;4.65;;;2.33;;
7515;SDS011;3799;47.184;8.538;2023-12-20T05:04:47;6.20;;;2.20;;
7515;SDS011;3799;47.184;8.538;2023-12-20T05:07:15;4.28;;;1.92;;
7515;SDS011;3799;47.184;8.538;2023-12-20T05:09:43;5.32;;;1.88;;
7515;SDS011;3799;47.184;8.538;2023-12-20T05:12:10;4.40;;;1.75;;
7515;SDS011;3799;47.184;8.538;2023-12-20T05:14:37;6.40;;;2.53;;
7515;SDS011;3799;47.184;8.538;2023-12-20T05:17:04;4.40;;;1.75;;
7515;SDS011;3799;47.184;8.538;2023-12-20T05:19:32;3.30;;;1.60;;
7515;SDS011;3799;47.184;8.538;2023-12-20T05:22:02;2.83;;;1.35;;
7515;SDS011;3799;47.184;8.538;2023-12-20T05:24:29;3.97;;;1.63;;
7515;SDS011;3799;47.184;8.538;2023-12-20T05:26:56;2.75;;;1.02;;
7515;SDS011;3799;47.184;8.538;2023-12-20T05:29:23;3.83;;;1.30;;
7515;SDS011;3799;47.184;8.538;2023-12-20T05:31:51;3.47;;;1.50;;
7515;SDS011;3799;47.184;8.538;2023-12-20T05:34:18;2.38;;;1.27;;
7515;SDS011;3799;47.184;8.538;2023-12-20T05:36:46;3.38;;;1.40;;
7515;SDS011;3799;47.184;8.538;2023-12-20T05:39:13;3.17;;;1.05;;
7515;SDS011;3799;47.184;8.538;2023-12-20T05:41:40;3.78;;;1.48;;
7515;SDS011;3799;47.184;8.538;2023-12-20T05:44:07;2.45;;;1.10;;
7515;SDS011;3799;47.184;8.538;2023-12-20T05:46:34;2.58;;;1.00;;
7515;SDS011;3799;47.184;8.538;2023-12-20T05:49:02;2.63;;;1.15;;
7515;SDS011;3799;47.184;8.538;2023-12-20T05:51:29;1.85;;;0.50;;
7515;SDS011;3799;47.184;8.538;2023-12-20T05:53:56;1.90;;;0.68;;
7515;SDS011;3799;47.184;8.538;2023-12-20T05:56:23;1.25;;;0.57;;
7515;SDS011;3799;47.184;8.538;2023-12-20T05:58:51;2.58;;;1.13;;
7515;SDS011;3799;47.184;8.538;2023-12-20T06:01:18;3.28;;;1.60;;
7515;SDS011;3799;47.184;8.538;2023-12-20T06:03:45;3.58;;;1.50;;
7515;SDS011;3799;47.184;8.538;2023-12-20T06:06:12;6.82;;;1.92;;
7515;SDS011;3799;47.184;8.538;2023-12-20T06:08:43;4.22;;;1.77;;
7515;SDS011;3799;47.184;8.538;2023-12-20T06:11:10;3.45;;;1.98;;
7515;SDS011;3799;47.184;8.538;2023-12-20T06:13:38;2.30;;;1.33;;
7515;SDS011;3799;47.184;8.538;2023-12-20T06:16:06;1.45;;;0.50;;
7515;SDS011;3799;47.184;8.538;2023-12-20T06:18:36;1.83;;;0.52;;
7515;SDS011;3799;47.184;8.538;2023-12-20T06:21:04;0.35;;;0.13;;
7515;SDS011;3799;47.184;8.538;2023-12-20T06:23:31;0.68;;;0.30;;
7515;SDS011;3799;47.184;8.538;2023-12-20T06:25:58;1.35;;;0.30;;
7515;SDS011;3799;47.184;8.538;2023-12-20T06:28:25;1.75;;;0.40;;
7515;SDS011;3799;47.184;8.538;2023-12-20T06:30:53;1.33;;;0.43;;
7515;SDS011;3799;47.184;8.538;2023-12-20T06:33:21;1.27;;;0.28;;
7515;SDS011;3799;47.184;8.538;2023-12-20T06:35:49;2.22;;;0.68;;
7515;SDS011;3799;47.184;8.538;2023-12-20T06:38:17;1.35;;;0.32;;
7515;SDS011;3799;47.184;8.538;2023-12-20T06:40:45;1.23;;;0.20;;
7515;SDS011;3799;47.184;8.538;2023-12-20T06:43:12;0.57;;;0.10;;
7515;SDS011;3799;47.184;8.538;2023-12-20T06:45:58;1.83;;;0.50;;
7515;SDS011;3799;47.184;8.538;2023-12-20T06:48:26;0.47;;;0.10;;
7515;SDS011;3799;47.184;8.538;2023-12-20T06:50:54;1.60;;;0.40;;
7515;SDS011;3799;47.184;8.538;2023-12-20T06:53:21;0.63;;;0.10;;
7515;SDS011;3799;47.184;8.538;2023-12-20T06:55:48;0.80;;;0.30;;
7515;SDS011;3799;47.184;8.538;2023-12-20T06:58:15;0.60;;;0.17;;
7515;SDS011;3799;47.184;8.538;2023-12-20T07:00:43;0.63;;;0.25;;
7515;SDS011;3799;47.184;8.538;2023-12-20T07:03:10;0.38;;;0.08;;
7515;SDS011;3799;47.184;8.538;2023-12-20T07:05:37;0.65;;;0.22;;
7515;SDS011;3799;47.184;8.538;2023-12-20T07:08:05;0.77;;;0.30;;
7515;SDS011;3799;47.184;8.538;2023-12-20T07:10:33;0.80;;;0.22;;
7515;SDS011;3799;47.184;8.538;2023-12-20T07:13:04;0.98;;;0.22;;
7515;SDS011;3799;47.184;8.538;2023-12-20T07:15:32;3.40;;;0.38;;
7515;SDS011;3799;47.184;8.538;2023-12-20T07:18:00;0.73;;;0.28;;
7515;SDS011;3799;47.184;8.538;2023-12-20T07:20:27;0.60;;;0.15;;
7515;SDS011;3799;47.184;8.538;2023-12-20T07:22:54;0.40;;;0.20;;
7515;SDS011;3799;47.184;8.538;2023-12-20T07:25:21;1.85;;;0.30;;
7515;SDS011;3799;47.184;8.538;2023-12-20T07:27:49;0.47;;;0.08;;
7515;SDS011;3799;47.184;8.538;2023-12-20T07:30:17;1.25;;;0.40;;
7515;SDS011;3799;47.184;8.538;2023-12-20T07:32:44;1.55;;;0.35;;
7515;SDS011;3799;47.184;8.538;2023-12-20T07:35:12;0.98;;;0.50;;
7515;SDS011;3799;47.184;8.538;2023-12-20T07:37:40;1.95;;;1.00;;
7515;SDS011;3799;47.184;8.538;2023-12-20T07:40:08;1.98;;;0.65;;
7515;SDS011;3799;47.184;8.538;2023-12-20T07:42:35;2.00;;;0.70;;
7515;SDS011;3799;47.184;8.538;2023-12-20T07:45:03;2.85;;;1.40;;
7515;SDS011;3799;47.184;8.538;2023-12-20T07:47:30;3.88;;;1.02;;
7515;SDS011;3799;47.184;8.538;2023-12-20T07:49:58;3.20;;;1.30;;
7515;SDS011;3799;47.184;8.538;2023-12-20T07:52:25;2.30;;;0.68;;
7515;SDS011;3799;47.184;8.538;2023-12-20T07:54:53;1.80;;;0.85;;
7515;SDS011;3799;47.184;8.538;2023-12-20T07:57:20;1.23;;;0.55;;
7515;SDS011;3799;47.184;8.538;2023-12-20T07:59:47;1.85;;;0.80;;
7515;SDS011;3799;47.184;8.538;2023-12-20T08:02:14;2.25;;;1.20;;
7515;SDS011;3799;47.184;8.538;2023-12-20T08:04:41;1.67;;;0.80;;
7515;SDS011;3799;47.184;8.538;2023-12-20T08:07:09;2.72;;;0.90;;
7515;SDS011;3799;47.184;8.538;2023-12-20T08:09:36;2.08;;;0.80;;
7515;SDS011;3799;47.184;8.538;2023-12-20T08:12:03;1.88;;;1.02;;
7515;SDS011;3799;47.184;8.538;2023-12-20T08:14:31;6.47;;;1.13;;
7515;SDS011;3799;47.184;8.538;2023-12-20T08:16:58;1.92;;;1.00;;
7515;SDS011;3799;47.184;8.538;2023-12-20T08:19:25;2.22;;;0.55;;
7515;SDS011;3799;47.184;8.538;2023-12-20T08:21:52;2.22;;;0.90;;
7515;SDS011;3799;47.184;8.538;2023-12-20T08:24:20;1.83;;;0.70;;
7515;SDS011;3799;47.184;8.538;2023-12-20T08:26:47;2.72;;;0.70;;
7515;SDS011;3799;47.184;8.538;2023-12-20T08:29:14;2.00;;;0.55;;
7515;SDS011;3799;47.184;8.538;2023-12-20T08:31:41;1.08;;;0.60;;
7515;SDS011;3799;47.184;8.538;2023-12-20T08:34:09;1.52;;;0.63;;
7515;SDS011;3799;47.184;8.538;2023-12-20T08:36:38;1.35;;;0.60;;
7515;SDS011;3799;47.184;8.538;2023-12-20T08:39:05;1.83;;;0.80;;
7515;SDS011;3799;47.184;8.538;2023-12-20T08:41:34;2.10;;;0.60;;
7515;SDS011;3799;47.184;8.538;2023-12-20T08:44:02;2.80;;;0.68;;
7515;SDS011;3799;47.184;8.538;2023-12-20T08:46:29;1.90;;;0.77;;
7515;SDS011;3799;47.184;8.538;2023-12-20T08:48:56;1.85;;;0.80;;
7515;SDS011;3799;47.184;8.538;2023-12-20T08:51:24;1.23;;;0.70;;
7515;SDS011;3799;47.184;8.538;2023-12-20T08:53:52;1.75;;;1.00;;
7515;SDS011;3799;47.184;8.538;2023-12-20T08:56:19;2.58;;;1.05;;
7515;SDS011;3799;47.184;8.538;2023-12-20T08:58:50;3.15;;;1.13;;
7515;SDS011;3799;47.184;8.538;2023-12-20T09:01:30;2.05;;;1.00;;
7515;SDS011;3799;47.184;8.538;2023-12-20T09:03:57;3.25;;;1.50;;
7515;SDS011;3799;47.184;8.538;2023-12-20T09:06:25;2.97;;;0.80;;
7515;SDS011;3799;47.184;8.538;2023-12-20T09:08:52;3.25;;;0.98;;
7515;SDS011;3799;47.184;8.538;2023-12-20T09:11:19;3.33;;;1.10;;
7515;SDS011;3799;47.184;8.538;2023-12-20T09:13:46;1.58;;;0.88;;
7515;SDS011;3799;47.184;8.538;2023-12-20T09:16:14;3.97;;;1.38;;
7515;SDS011;3799;47.184;8.538;2023-12-20T09:18:42;2.78;;;0.77;;
7515;SDS011;3799;47.184;8.538;2023-12-20T09:21:10;3.47;;;1.00;;
7515;SDS011;3799;47.184;8.538;2023-12-20T09:23:37;1.35;;;0.43;;
7515;SDS011;3799;47.184;8.538;2023-12-20T09:26:05;2.63;;;1.20;;
7515;SDS011;3799;47.184;8.538;2023-12-20T09:28:32;3.47;;;1.40;;
7515;SDS011;3799;47.184;8.538;2023-12-20T09:31:04;3.42;;;1.13;;
7515;SDS011;3799;47.184;8.538;2023-12-20T09:33:35;5.10;;;1.30;;
7515;SDS011;3799;47.184;8.538;2023-12-20T09:36:02;1.48;;;0.77;;
7515;SDS011;3799;47.184;8.538;2023-12-20T09:38:29;3.42;;;1.50;;
7515;SDS011;3799;47.184;8.538;2023-12-20T09:40:57;2.30;;;1.13;;
7515;SDS011;3799;47.184;8.538;2023-12-20T09:43:24;3.47;;;1.50;;
7515;SDS011;3799;47.184;8.538;2023-12-20T09:45:57;3.83;;;1.15;;
7515;SDS011;3799;47.184;8.538;2023-12-20T09:48:29;3.58;;;1.38;;
7515;SDS011;3799;47.184;8.538;2023-12-20T09:50:56;5.22;;;1.58;;
7515;SDS011;3799;47.184;8.538;2023-12-20T09:53:24;2.70;;;1.15;;
7515;SDS011;3799;47.184;8.538;2023-12-20T09:55:59;5.10;;;1.60;;
7515;SDS011;3799;47.184;8.538;2023-12-20T09:58:29;2.72;;;1.27;;
7515;SDS011;3799;47.184;8.538;2023-12-20T10:00:56;2.63;;;1.33;;
7515;SDS011;3799;47.184;8.538;2023-12-20T10:03:24;3.35;;;1.55;;
7515;SDS011;3799;47.184;8.538;2023-12-20T10:05:56;3.65;;;1.10;;
7515;SDS011;3799;47.184;8.538;2023-12-20T10:08:25;2.72;;;1.20;;
7515;SDS011;3799;47.184;8.538;2023-12-20T10:10:52;4.75;;;1.25;;
7515;SDS011;3799;47.184;8.538;2023-12-20T10:13:22;2.80;;;1.25;;
7515;SDS011;3799;47.184;8.538;2023-12-20T10:15:49;1.88;;;0.80;;
7515;SDS011;3799;47.184;8.538;2023-12-20T10:18:17;3.28;;;0.80;;
7515;SDS011;3799;47.184;8.538;2023-12-20T10:20:44;2.00;;;1.13;;
7515;SDS011;3799;47.184;8.538;2023-12-20T10:23:22;1.50;;;0.57;;
7515;SDS011;3799;47.184;8.538;2023-12-20T10:25:58;1.90;;;0.50;;
7515;SDS011;3799;47.184;8.538;2023-12-20T10:28:26;2.38;;;1.23;;
7515;SDS011;3799;47.184;8.538;2023-12-20T10:30:59;1.70;;;0.52;;
7515;SDS011;3799;47.184;8.538;2023-12-20T10:33:34;2.35;;;1.00;;
7515;SDS011;3799;47.184;8.538;2023-12-20T10:36:02;3.20;;;1.27;;
7515;SDS011;3799;47.184;8.538;2023-12-20T10:38:30;2.47;;;1.05;;
7515;SDS011;3799;47.184;8.538;2023-12-20T10:40:57;3.40;;;1.20;;
7515;SDS011;3799;47.184;8.538;2023-12-20T10:43:26;2.50;;;1.40;;
7515;SDS011;3799;47.184;8.538;2023-12-20T10:45:56;3.75;;;1.52;;
7515;SDS011;3799;47.184;8.538;2023-12-20T10:48:24;4.90;;;1.20;;
7515;SDS011;3799;47.184;8.538;2023-12-20T10:50:56;2.80;;;1.10;;
7515;SDS011;3799;47.184;8.538;2023-12-20T10:53:24;2.75;;;1.10;;
7515;SDS011;3799;47.184;8.538;2023-12-20T10:55:55;3.33;;;1.48;;
7515;SDS011;3799;47.184;8.538;2023-12-20T10:58:26;3.42;;;1.45;;
7515;SDS011;3799;47.184;8.538;2023-12-20T11:01:00;8.05;;;2.55;;
7515;SDS011;3799;47.184;8.538;2023-12-20T11:03:33;4.10;;;2.03;;
7515;SDS011;3799;47.184;8.538;2023-12-20T11:14:49;3.95;;;2.20;;
7515;SDS011;3799;47.184;8.538;2023-12-20T11:17:18;2.08;;;0.88;;
7515;SDS011;3799;47.184;8.538;2023-12-20T11:22:20;3.88;;;2.28;;
7515;SDS011;3799;47.184;8.538;2023-12-20T11:24:48;2.67;;;1.25;;
7515;SDS011;3799;47.184;8.538;2023-12-20T11:27:18;5.72;;;2.20;;
7515;SDS011;3799;47.184;8.538;2023-12-20T11:29:50;2.55;;;1.25;;
7515;SDS011;3799;47.184;8.538;2023-12-20T11:37:47;4.40;;;1.90;;
7515;SDS011;3799;47.184;8.538;2023-12-20T11:40:15;2.75;;;1.63;;
7515;SDS011;3799;47.184;8.538;2023-12-20T11:42:45;2.17;;;1.02;;
7515;SDS011;3799;47.184;8.538;2023-12-20T11:45:17;4.35;;;1.30;;
7515;SDS011;3799;47.184;8.538;2023-12-20T11:47:49;2.53;;;1.00;;
7515;SDS011;3799;47.184;8.538;2023-12-20T11:50:17;2.67;;;1.13;;
7515;SDS011;3799;47.184;8.538;2023-12-20T11:52:47;6.75;;;2.67;;
7515;SDS011;3799;47.184;8.538;2023-12-20T11:55:15;8.63;;;4.47;;
7515;SDS011;3799;47.184;8.538;2023-12-20T11:57:43;4.93;;;2.00;;
7515;SDS011;3799;47.184;8.538;2023-12-20T12:00:12;3.30;;;1.38;;
7515;SDS011;3799;47.184;8.538;2023-12-20T12:02:41;3.40;;;1.33;;
7515;SDS011;3799;47.184;8.538;2023-12-20T12:05:21;3.28;;;1.58;;
7515;SDS011;3799;47.184;8.538;2023-12-20T12:07:48;3.22;;;1.08;;
7515;SDS011;3799;47.184;8.538;2023-12-20T12:10:15;2.78;;;1.23;;
7515;SDS011;3799;47.184;8.538;2023-12-20T12:12:43;5.97;;;1.48;;
7515;SDS011;3799;47.184;8.538;2023-12-20T12:15:10;10.13;;;4.10;;
7515;SDS011;3799;47.184;8.538;2023-12-20T12:17:38;3.85;;;1.70;;
7515;SDS011;3799;47.184;8.538;2023-12-20T12:20:05;4.00;;;1.88;;
7515;SDS011;3799;47.184;8.538;2023-12-20T12:22:36;4.22;;;1.63;;
7515;SDS011;3799;47.184;8.538;2023-12-20T12:25:10;2.28;;;1.15;;
7515;SDS011;3799;47.184;8.538;2023-12-20T12:27:39;3.58;;;1.65;;
7515;SDS011;3799;47.184;8.538;2023-12-20T12:30:08;2.92;;;1.38;;
7515;SDS011;3799;47.184;8.538;2023-12-20T12:32:36;2.17;;;1.08;;
7515;SDS011;3799;47.184;8.538;2023-12-20T12:35:05;4.68;;;1.40;;
7515;SDS011;3799;47.184;8.538;2023-12-20T12:37:34;5.57;;;1.42;;
7515;SDS011;3799;47.184;8.538;2023-12-20T12:40:03;1.98;;;0.60;;
7515;SDS011;3799;47.184;8.538;2023-12-20T12:42:32;1.25;;;0.50;;
7515;SDS011;3799;47.184;8.538;2023-12-20T12:44:59;3.58;;;0.70;;
7515;SDS011;3799;47.184;8.538;2023-12-20T12:47:26;1.10;;;0.50;;
7515;SDS011;3799;47.184;8.538;2023-12-20T12:49:53;4.45;;;0.75;;
7515;SDS011;3799;47.184;8.538;2023-12-20T12:52:21;2.80;;;1.05;;
7515;SDS011;3799;47.184;8.538;2023-12-20T12:54:49;1.73;;;0.55;;
7515;SDS011;3799;47.184;8.538;2023-12-20T12:57:17;2.20;;;0.77;;
7515;SDS011;3799;47.184;8.538;2023-12-20T12:59:44;2.80;;;0.82;;
7515;SDS011;3799;47.184;8.538;2023-12-20T13:02:12;1.27;;;0.40;;
7515;SDS011;3799;47.184;8.538;2023-12-20T13:04:40;1.52;;;0.60;;
7515;SDS011;3799;47.184;8.538;2023-12-20T13:07:09;0.80;;;0.25;;
7515;SDS011;3799;47.184;8.538;2023-12-20T13:09:39;1.38;;;0.52;;
7515;SDS011;3799;47.184;8.538;2023-12-20T13:12:07;2.17;;;0.47;;
7515;SDS011;3799;47.184;8.538;2023-12-20T13:14:35;2.50;;;0.65;;
7515;SDS011;3799;47.184;8.538;2023-12-20T13:17:05;1.48;;;0.40;;
7515;SDS011;3799;47.184;8.538;2023-12-20T13:19:33;1.25;;;0.43;;
7515;SDS011;3799;47.184;8.538;2023-12-20T13:22:00;1.75;;;0.60;;
7515;SDS011;3799;47.184;8.538;2023-12-20T13:24:28;2.03;;;0.85;;
7515;SDS011;3799;47.184;8.538;2023-12-20T13:26:55;2.78;;;1.17;;
7515;SDS011;3799;47.184;8.538;2023-12-20T13:29:23;2.05;;;0.68;;
7515;SDS011;3799;47.184;8.538;2023-12-20T13:31:54;1.30;;;0.60;;
7515;SDS011;3799;47.184;8.538;2023-12-20T13:34:21;1.48;;;0.60;;
7515;SDS011;3799;47.184;8.538;2023-12-20T13:36:49;1.67;;;0.60;;
7515;SDS011;3799;47.184;8.538;2023-12-20T13:39:17;1.40;;;0.57;;
7515;SDS011;3799;47.184;8.538;2023-12-20T13:41:44;0.95;;;0.40;;
7515;SDS011;3799;47.184;8.538;2023-12-20T13:44:12;0.88;;;0.30;;
7515;SDS011;3799;47.184;8.538;2023-12-20T13:46:40;0.80;;;0.25;;
7515;SDS011;3799;47.184;8.538;2023-12-20T13:49:08;1.60;;;0.38;;
7515;SDS011;3799;47.184;8.538;2023-12-20T13:51:35;0.98;;;0.40;;
7515;SDS011;3799;47.184;8.538;2023-12-20T13:54:02;0.82;;;0.30;;
7515;SDS011;3799;47.184;8.538;2023-12-20T13:56:30;2.17;;;0.50;;
7515;SDS011;3799;47.184;8.538;2023-12-20T13:59:00;1.23;;;0.30;;
7515;SDS011;3799;47.184;8.538;2023-12-20T14:01:27;0.68;;;0.30;;
7515;SDS011;3799;47.184;8.538;2023-12-20T14:03:54;1.13;;;0.32;;
7515;SDS011;3799;47.184;8.538;2023-12-20T14:06:21;2.80;;;0.70;;
7515;SDS011;3799;47.184;8.538;2023-12-20T14:08:49;1.25;;;0.40;;
7515;SDS011;3799;47.184;8.538;2023-12-20T14:11:16;1.05;;;0.50;;
7515;SDS011;3799;47.184;8.538;2023-12-20T14:13:44;3.28;;;0.57;;
7515;SDS011;3799;47.184;8.538;2023-12-20T14:16:11;1.83;;;0.75;;
7515;SDS011;3799;47.184;8.538;2023-12-20T14:18:39;1.75;;;0.50;;
7515;SDS011;3799;47.184;8.538;2023-12-20T14:21:06;1.67;;;0.55;;
7515;SDS011;3799;47.184;8.538;2023-12-20T14:23:34;2.95;;;0.60;;
7515;SDS011;3799;47.184;8.538;2023-12-20T14:26:01;2.30;;;0.40;;
7515;SDS011;3799;47.184;8.538;2023-12-20T14:28:30;1.63;;;0.68;;
7515;SDS011;3799;47.184;8.538;2023-12-20T14:30:57;2.35;;;0.47;;
7515;SDS011;3799;47.184;8.538;2023-12-20T14:33:24;1.80;;;0.93;;
7515;SDS011;3799;47.184;8.538;2023-12-20T14:35:52;4.63;;;0.47;;
7515;SDS011;3799;47.184;8.538;2023-12-20T14:38:20;1.15;;;0.40;;
7515;SDS011;3799;47.184;8.538;2023-12-20T14:40:48;3.20;;;0.60;;
7515;SDS011;3799;47.184;8.538;2023-12-20T14:43:15;1.25;;;0.50;;
7515;SDS011;3799;47.184;8.538;2023-12-20T14:45:43;1.38;;;0.47;;
7515;SDS011;3799;47.184;8.538;2023-12-20T14:48:10;1.38;;;0.57;;
7515;SDS011;3799;47.184;8.538;2023-12-20T14:50:37;0.65;;;0.20;;
7515;SDS011;3799;47.184;8.538;2023-12-20T14:53:07;0.85;;;0.28;;
7515;SDS011;3799;47.184;8.538;2023-12-20T14:55:34;3.05;;;0.80;;
7515;SDS011;3799;47.184;8.538;2023-12-20T14:58:02;3.55;;;0.90;;
7515;SDS011;3799;47.184;8.538;2023-12-20T15:00:29;5.60;;;0.73;;
7515;SDS011;3799;47.184;8.538;2023-12-20T15:02:56;1.55;;;0.80;;
7515;SDS011;3799;47.184;8.538;2023-12-20T15:05:23;2.55;;;0.60;;
7515;SDS011;3799;47.184;8.538;2023-12-20T15:07:51;1.20;;;0.50;;
7515;SDS011;3799;47.184;8.538;2023-12-20T15:10:19;1.33;;;0.73;;
7515;SDS011;3799;47.184;8.538;2023-12-20T15:12:46;1.08;;;0.80;;
7515;SDS011;3799;47.184;8.538;2023-12-20T15:15:13;2.55;;;0.68;;
7515;SDS011;3799;47.184;8.538;2023-12-20T15:17:41;2.17;;;0.28;;
7515;SDS011;3799;47.184;8.538;2023-12-20T15:20:08;1.35;;;0.32;;
7515;SDS011;3799;47.184;8.538;2023-12-20T15:22:40;0.77;;;0.38;;
7515;SDS011;3799;47.184;8.538;2023-12-20T15:25:08;3.75;;;0.77;;
7515;SDS011;3799;47.184;8.538;2023-12-20T15:27:35;1.13;;;0.47;;
7515;SDS011;3799;47.184;8.538;2023-12-20T15:30:05;1.17;;;0.40;;
7515;SDS011;3799;47.184;8.538;2023-12-20T15:32:35;0.82;;;0.30;;
7515;SDS011;3799;47.184;8.538;2023-12-20T15:35:03;1.17;;;0.60;;
7515;SDS011;3799;47.184;8.538;2023-12-20T15:37:31;0.70;;;0.20;;